Estación Meteorológica Peña el Pijo (Robertgarden) [ 12/09/19 16:26:37 CET ]

Fecha Hora Presion(HPa) Temp (°C) Humedad % Rocio (°C) Viento ( m/s) Direccion Lluvia 1Hora(mm) Lluvia 24H(mm) LLuvia Total(mm)
2019-Sep-21 01:01:40 1008.500 14.9 88 12.9       0.51 486.63
2019-Sep-21 02:01:53 1008.300 14.9 89 13.1       0.51 486.63
2019-Sep-21 03:01:47 1007.600 15.3 89 13.5       0.51 486.63
2019-Sep-21 04:01:44 1007.400 14.4 89 12.6       0.51 486.63
2019-Sep-21 05:08:11 1007.200 13.9 90 12.3       0.51 486.63
2019-Sep-21 06:01:54 1007.600 14.1 90 12.5       0.51 486.63
2019-Sep-21 07:01:49 1007.600 14.1 91 12.7       0.51 486.63
2019-Sep-21 08:01:53 1007.600 14.3 91 12.9       0.51 486.63
2019-Sep-21 09:01:47 1007.600 14.4 92 13.1       0.51 486.63
2019-Sep-21 10:01:45 1007.800 16.3 91 14.9       0.51 486.63
2019-Sep-21 11:01:42 1007.900 19.5 84 16.7       0.51 486.63
2019-Sep-21 12:01:44 1008.000 22.3 70 16.6       0.51 486.63
2019-Sep-21 13:01:53 1007.600 22.8 63 15.4       0.51 486.63
2019-Sep-21 14:01:46 1007.200 22.6 62 14.9     0.51 1.03 487.15
2019-Sep-21 15:01:50 1007.400 18.4 77 14.3     2.07 3.10 489.22
2019-Sep-21 16:01:49 1006.900 19.7 81 16.4     0.51 3.62 489.74
2019-Sep-21 17:01:48 1006.700 21.1 79 17.3       3.62 489.74
2019-Sep-21 18:01:48 1006.700 22.1 73 17.0       3.62 489.74
2019-Sep-21 19:01:49 1007.100 20.9 76 16.5       3.62 489.74
2019-Sep-21 20:01:54 1006.800 18.8 82 15.7       3.10 489.74
2019-Sep-21 21:01:40 1006.900 17.2 84 14.5       3.10 489.74
2019-Sep-21 22:01:51 1007.700 16.2 86 13.9       3.10 489.74
2019-Sep-21 23:01:53 1008.400 16.1 88 14.1       3.10 489.74

Temperatura Máxima:22°    Temperatura Mínima:13°
Presión Máxima:1008.500 Hpa    Presión Mínima:1006.700 Hpa


Volver